createdAt,value
2023-11-15T00:01:46.425Z,8.33
2023-11-15T00:04:13.653Z,8.26
2023-11-15T00:06:40.323Z,8.32
2023-11-15T00:09:07.418Z,8.40
2023-11-15T00:11:35.103Z,8.40
2023-11-15T00:14:01.600Z,8.41
2023-11-15T00:16:28.016Z,8.38
2023-11-15T00:18:54.681Z,8.38
2023-11-15T00:21:21.597Z,8.50
2023-11-15T00:23:47.945Z,8.42
2023-11-15T00:26:14.314Z,8.42
2023-11-15T00:28:40.863Z,8.42
2023-11-15T00:31:07.282Z,8.46
2023-11-15T00:33:33.738Z,8.37
2023-11-15T00:36:00.406Z,8.41
2023-11-15T00:38:30.130Z,8.34
2023-11-15T00:40:56.957Z,8.36
2023-11-15T00:43:23.276Z,8.32
2023-11-15T00:45:51.981Z,8.35
2023-11-15T00:48:18.721Z,8.30
2023-11-15T00:50:45.169Z,8.37
2023-11-15T00:53:11.515Z,8.39
2023-11-15T00:55:37.963Z,8.44
2023-11-15T00:58:05.032Z,8.48
2023-11-15T01:00:39.670Z,8.43
2023-11-15T01:03:06.631Z,8.42
2023-11-15T01:05:33.177Z,8.42
2023-11-15T01:07:59.565Z,8.46
2023-11-15T01:10:26.029Z,8.50
2023-11-15T01:12:52.699Z,8.52
2023-11-15T01:15:20.162Z,8.43
2023-11-15T01:17:46.850Z,8.55
2023-11-15T01:20:13.909Z,8.43
2023-11-15T01:22:41.077Z,8.45
2023-11-15T01:25:07.867Z,8.40
2023-11-15T01:27:34.279Z,8.40
2023-11-15T01:30:00.623Z,8.33
2023-11-15T01:32:27.298Z,8.42
2023-11-15T01:34:53.713Z,8.34
2023-11-15T01:37:20.056Z,8.35
2023-11-15T01:39:46.469Z,8.28
2023-11-15T01:42:12.933Z,8.30
2023-11-15T01:44:39.292Z,8.22
2023-11-15T01:47:06.143Z,8.26
2023-11-15T01:49:33.118Z,8.26
2023-11-15T01:51:59.938Z,8.20
2023-11-15T01:54:26.987Z,8.27
2023-11-15T01:56:53.825Z,8.28
2023-11-15T01:59:20.388Z,8.22
2023-11-15T02:01:48.489Z,8.15
2023-11-15T02:04:14.934Z,8.21
2023-11-15T02:06:41.520Z,8.12
2023-11-15T02:09:07.880Z,8.18
2023-11-15T02:11:34.338Z,8.25
2023-11-15T02:14:00.800Z,8.22
2023-11-15T02:16:27.231Z,8.21
2023-11-15T02:18:53.614Z,8.25
2023-11-15T02:21:19.957Z,8.31
2023-11-15T02:23:47.179Z,8.31
2023-11-15T02:26:14.019Z,8.42
2023-11-15T02:28:40.891Z,8.30
2023-11-15T02:31:07.284Z,8.24
2023-11-15T02:33:33.880Z,8.18
2023-11-15T02:36:00.508Z,8.27
2023-11-15T02:38:26.850Z,8.28
2023-11-15T02:40:53.995Z,8.20
2023-11-15T02:43:20.334Z,8.35
2023-11-15T02:45:46.663Z,8.47
2023-11-15T02:48:13.158Z,8.39
2023-11-15T02:50:39.919Z,8.47
2023-11-15T02:53:06.394Z,8.40
2023-11-15T02:55:32.745Z,8.42
2023-11-15T02:58:01.625Z,8.33
2023-11-15T03:00:30.134Z,8.31
2023-11-15T03:02:56.605Z,8.37
2023-11-15T03:05:23.209Z,8.38
2023-11-15T03:07:49.869Z,8.37
2023-11-15T03:10:16.534Z,8.43
2023-11-15T03:12:43.249Z,8.28
2023-11-15T03:15:09.809Z,8.39
2023-11-15T03:17:36.278Z,8.32
2023-11-15T03:20:03.173Z,8.43
2023-11-15T03:22:29.496Z,8.37
2023-11-15T03:24:55.886Z,8.48
2023-11-15T03:27:22.282Z,8.44
2023-11-15T03:29:49.738Z,8.50
2023-11-15T03:32:16.370Z,8.51
2023-11-15T03:34:43.219Z,8.46
2023-11-15T03:37:10.334Z,8.53
2023-11-15T03:39:38.816Z,8.48
2023-11-15T03:42:06.168Z,8.44
2023-11-15T03:44:33.399Z,8.57
2023-11-15T03:46:59.962Z,8.58
2023-11-15T03:49:26.372Z,8.54
2023-11-15T03:51:52.688Z,8.51
2023-11-15T03:54:19.050Z,8.48
2023-11-15T03:56:45.381Z,8.45
2023-11-15T03:59:11.754Z,8.46
2023-11-15T04:01:45.371Z,8.42
2023-11-15T04:04:18.154Z,8.45
2023-11-15T04:06:44.553Z,8.38
2023-11-15T04:09:11.913Z,8.56
2023-11-15T04:11:40.237Z,8.59
2023-11-15T04:14:07.275Z,8.42
2023-11-15T04:16:33.696Z,8.45
2023-11-15T04:19:00.124Z,8.48
2023-11-15T04:21:30.042Z,8.52
2023-11-15T04:23:56.440Z,8.45
2023-11-15T04:26:23.219Z,8.41
2023-11-15T04:28:50.171Z,8.53
2023-11-15T04:31:16.652Z,8.50
2023-11-15T04:33:43.005Z,8.47
2023-11-15T04:36:11.732Z,8.47
2023-11-15T04:38:38.529Z,8.52
2023-11-15T04:41:06.568Z,8.53
2023-11-15T04:43:32.903Z,8.57
2023-11-15T04:45:59.411Z,8.48
2023-11-15T04:48:26.449Z,8.43
2023-11-15T04:50:52.947Z,8.40
2023-11-15T04:53:19.289Z,8.57
2023-11-15T04:55:46.088Z,8.51
2023-11-15T04:58:14.762Z,8.50
2023-11-15T05:00:41.109Z,8.53
2023-11-15T05:03:07.544Z,8.45
2023-11-15T05:05:33.979Z,8.47
2023-11-15T05:08:00.499Z,8.45
2023-11-15T05:10:27.027Z,8.57
2023-11-15T05:12:53.406Z,8.51
2023-11-15T05:15:19.790Z,8.48
2023-11-15T05:17:46.188Z,8.46
2023-11-15T05:20:12.703Z,8.38
2023-11-15T05:22:39.174Z,8.43
2023-11-15T05:25:07.075Z,8.49
2023-11-15T05:27:34.118Z,8.44
2023-11-15T05:30:01.279Z,8.35
2023-11-15T05:32:27.911Z,8.42
2023-11-15T05:34:54.345Z,8.42
2023-11-15T05:37:20.714Z,8.52
2023-11-15T05:39:47.044Z,8.63
2023-11-15T05:42:13.382Z,8.50
2023-11-15T05:44:39.755Z,8.52
2023-11-15T05:47:06.095Z,8.52
2023-11-15T05:49:32.421Z,8.64
2023-11-15T05:51:59.910Z,8.66
2023-11-15T05:54:26.261Z,8.66
2023-11-15T05:56:52.885Z,8.57
2023-11-15T05:59:20.534Z,8.57
2023-11-15T06:01:46.902Z,8.63
2023-11-15T06:04:13.340Z,8.64
2023-11-15T06:06:39.699Z,8.61
2023-11-15T06:09:06.093Z,8.67
2023-11-15T06:11:32.451Z,8.70
2023-11-15T06:13:58.828Z,8.63
2023-11-15T06:16:25.689Z,8.59
2023-11-15T06:18:52.877Z,8.57
2023-11-15T06:21:21.779Z,8.59
2023-11-15T06:23:48.142Z,8.57
2023-11-15T06:26:15.525Z,8.51
2023-11-15T06:28:41.976Z,8.48
2023-11-15T06:31:08.375Z,8.47
2023-11-15T06:33:34.966Z,8.54
2023-11-15T06:36:03.142Z,8.53
2023-11-15T06:38:29.578Z,8.48
2023-11-15T06:41:00.098Z,8.42
2023-11-15T06:43:27.380Z,8.45
2023-11-15T06:45:53.834Z,8.43
2023-11-15T06:48:20.302Z,8.48
2023-11-15T06:50:46.689Z,8.45
2023-11-15T06:53:14.198Z,8.48
2023-11-15T06:55:40.637Z,8.48
2023-11-15T06:58:08.831Z,8.58
2023-11-15T07:00:35.232Z,8.55
2023-11-15T07:03:04.685Z,8.51
2023-11-15T07:05:32.460Z,8.61
2023-11-15T07:07:58.842Z,8.58
2023-11-15T07:10:25.174Z,8.72
2023-11-15T07:12:55.081Z,8.70
2023-11-15T07:15:24.214Z,8.64
2023-11-15T07:17:50.594Z,8.67
2023-11-15T07:20:21.616Z,8.60
2023-11-15T07:22:48.564Z,8.65
2023-11-15T07:25:15.561Z,8.62
2023-11-15T07:27:41.943Z,8.68
2023-11-15T07:30:09.329Z,8.82
2023-11-15T07:32:35.928Z,8.86
2023-11-15T07:35:02.322Z,8.89
2023-11-15T07:37:28.783Z,8.87
2023-11-15T07:39:55.109Z,8.83
2023-11-15T07:42:21.435Z,8.84
2023-11-15T07:44:50.049Z,8.84
2023-11-15T07:47:18.162Z,8.95
2023-11-15T07:49:45.261Z,8.97
2023-11-15T07:52:14.454Z,9.00
2023-11-15T07:54:40.997Z,8.95
2023-11-15T07:57:08.805Z,8.90
2023-11-15T07:59:35.779Z,9.02
2023-11-15T08:02:02.131Z,8.90
2023-11-15T08:04:28.577Z,8.94
2023-11-15T08:06:55.711Z,8.91
2023-11-15T08:09:33.216Z,8.79
2023-11-15T08:12:00.177Z,8.92
2023-11-15T08:14:27.308Z,9.02
2023-11-15T08:16:55.617Z,9.15
2023-11-15T08:19:22.021Z,9.20
2023-11-15T08:21:48.702Z,9.26
2023-11-15T08:24:21.872Z,9.33
2023-11-15T08:26:49.255Z,9.39
2023-11-15T08:29:15.583Z,9.35
2023-11-15T08:31:44.518Z,9.37
2023-11-15T08:34:11.554Z,9.35
2023-11-15T08:36:39.226Z,9.44
2023-11-15T08:39:12.352Z,9.47
2023-11-15T08:41:39.270Z,9.45
2023-11-15T08:44:05.972Z,9.46
2023-11-15T08:46:34.367Z,9.44
2023-11-15T08:49:01.702Z,9.51
2023-11-15T08:51:30.298Z,9.40
2023-11-15T08:53:58.450Z,9.53
2023-11-15T08:56:24.798Z,9.50
2023-11-15T08:58:51.137Z,9.53
2023-11-15T09:01:18.183Z,9.63
2023-11-15T09:03:46.214Z,9.65
2023-11-15T09:06:13.273Z,9.63
2023-11-15T09:08:39.826Z,9.64
2023-11-15T09:11:06.429Z,9.57
2023-11-15T09:13:34.190Z,9.67
2023-11-15T09:16:00.768Z,9.65
2023-11-15T09:18:28.773Z,9.79
2023-11-15T09:20:55.223Z,9.70
2023-11-15T09:23:28.802Z,9.67
2023-11-15T09:25:59.831Z,9.73
2023-11-15T09:28:26.282Z,9.85
2023-11-15T09:30:53.724Z,9.72
2023-11-15T09:33:21.742Z,9.75
2023-11-15T09:35:54.970Z,9.91
2023-11-15T09:38:26.941Z,9.98
2023-11-15T09:40:53.281Z,9.94
2023-11-15T09:43:20.801Z,10.01
2023-11-15T09:45:48.850Z,9.95
2023-11-15T09:48:15.827Z,10.02
2023-11-15T09:50:42.821Z,9.79
2023-11-15T09:53:09.637Z,9.95
2023-11-15T09:55:36.139Z,9.99
2023-11-15T09:58:02.920Z,9.88
2023-11-15T10:00:30.551Z,9.83
2023-11-15T10:02:57.800Z,9.93
2023-11-15T10:05:27.848Z,9.98
2023-11-15T10:08:12.151Z,9.83
2023-11-15T10:10:41.559Z,9.78
2023-11-15T10:13:17.184Z,9.87
2023-11-15T10:15:47.790Z,9.82
2023-11-15T10:18:16.272Z,9.89
2023-11-15T10:20:44.112Z,9.89
2023-11-15T10:23:12.745Z,9.89
2023-11-15T10:26:01.331Z,10.00
2023-11-15T10:28:35.049Z,10.07
2023-11-15T10:31:06.322Z,10.22
2023-11-15T10:33:39.042Z,10.36
2023-11-15T10:36:16.014Z,10.37
2023-11-15T10:38:47.403Z,10.33
2023-11-15T10:41:18.029Z,10.31
2023-11-15T10:43:47.940Z,10.40
2023-11-15T10:46:16.268Z,10.28
2023-11-15T10:48:46.200Z,10.39
2023-11-15T10:51:20.556Z,10.57
2023-11-15T10:53:47.769Z,10.51
2023-11-15T10:56:16.725Z,10.49
2023-11-15T10:58:47.956Z,10.35
2023-11-15T11:01:14.947Z,10.41
2023-11-15T11:03:42.493Z,10.19
2023-11-15T11:06:37.784Z,10.35
2023-11-15T11:09:27.158Z,10.38
2023-11-15T11:12:05.022Z,10.47
2023-11-15T11:14:32.129Z,10.60
2023-11-15T11:16:59.736Z,10.53
2023-11-15T11:19:29.820Z,10.68
2023-11-15T11:22:09.036Z,10.74
2023-11-15T11:24:37.149Z,10.65
2023-11-15T11:27:12.699Z,10.68
2023-11-15T11:30:06.909Z,10.59
2023-11-15T11:32:33.566Z,10.45
2023-11-15T11:35:06.265Z,10.51
2023-11-15T11:37:45.272Z,10.49
2023-11-15T11:40:14.946Z,10.41
2023-11-15T11:42:44.543Z,10.49
2023-11-15T11:45:13.153Z,10.55
2023-11-15T11:47:40.681Z,10.56
2023-11-15T11:50:08.177Z,10.64
2023-11-15T11:52:37.741Z,10.69
2023-11-15T11:55:06.152Z,10.70
2023-11-15T11:57:32.525Z,10.65
2023-11-15T12:00:05.837Z,10.73
2023-11-15T12:02:36.325Z,10.66
2023-11-15T12:05:03.278Z,10.60
2023-11-15T12:07:30.301Z,10.51
2023-11-15T12:10:04.751Z,10.52
2023-11-15T12:12:31.963Z,10.52
2023-11-15T12:15:00.970Z,10.49
2023-11-15T12:17:44.792Z,10.47
2023-11-15T12:20:13.464Z,10.46
2023-11-15T12:22:43.346Z,10.46
2023-11-15T12:25:14.737Z,10.48
2023-11-15T12:27:46.280Z,10.45
2023-11-15T12:30:12.849Z,10.61
2023-11-15T12:32:45.525Z,10.41
2023-11-15T12:35:13.740Z,10.43
2023-11-15T12:37:40.627Z,10.46
2023-11-15T12:40:23.082Z,10.44
2023-11-15T12:42:49.579Z,10.52
2023-11-15T12:45:32.841Z,10.50
2023-11-15T12:48:03.756Z,10.57
2023-11-15T12:50:30.705Z,10.41
2023-11-15T12:53:07.322Z,10.18
2023-11-15T12:55:50.897Z,9.82
2023-11-15T12:58:43.557Z,8.73
2023-11-15T13:01:16.202Z,8.34
2023-11-15T13:03:43.584Z,8.07
2023-11-15T13:06:13.250Z,7.84
2023-11-15T13:08:49.672Z,7.58
2023-11-15T13:11:19.772Z,7.38
2023-11-15T13:13:48.645Z,7.36
2023-11-15T13:16:19.273Z,7.32
2023-11-15T13:18:48.581Z,7.23
2023-11-15T13:21:16.981Z,7.30
2023-11-15T13:23:44.583Z,7.35
2023-11-15T13:26:14.896Z,7.34
2023-11-15T13:28:45.935Z,7.34
2023-11-15T13:31:16.098Z,7.27
2023-11-15T13:33:48.699Z,7.25
2023-11-15T13:36:17.483Z,7.29
2023-11-15T13:38:43.969Z,7.27
2023-11-15T13:41:11.775Z,7.34
2023-11-15T13:43:41.786Z,7.39
2023-11-15T13:46:09.719Z,7.41
2023-11-15T13:48:37.344Z,7.57
2023-11-15T13:51:04.624Z,7.57
2023-11-15T13:53:30.972Z,7.64
2023-11-15T13:55:57.288Z,7.76
2023-11-15T13:58:23.659Z,7.76
2023-11-15T14:00:53.166Z,7.85
2023-11-15T14:03:19.832Z,7.87
2023-11-15T14:05:46.477Z,7.89
2023-11-15T14:08:13.773Z,7.99
2023-11-15T14:10:41.437Z,8.07
2023-11-15T14:13:08.175Z,8.09
2023-11-15T14:15:38.577Z,8.06
2023-11-15T14:18:05.226Z,8.06
2023-11-15T14:20:32.545Z,8.03
2023-11-15T14:22:59.448Z,8.05
2023-11-15T14:25:32.859Z,8.06
2023-11-15T14:28:04.060Z,8.09
2023-11-15T14:30:30.395Z,8.07
2023-11-15T14:32:57.620Z,8.11
2023-11-15T14:35:26.453Z,8.13
2023-11-15T14:37:54.529Z,8.17
2023-11-15T14:40:23.675Z,8.19
2023-11-15T14:42:53.186Z,8.10
2023-11-15T14:45:20.539Z,8.11
2023-11-15T14:47:47.199Z,8.16
2023-11-15T14:50:15.545Z,8.17
2023-11-15T14:52:53.969Z,8.10
2023-11-15T14:55:27.666Z,8.03
2023-11-15T14:57:54.203Z,8.05
2023-11-15T15:00:23.462Z,8.01
2023-11-15T15:02:50.289Z,7.92
2023-11-15T15:05:17.303Z,7.86
2023-11-15T15:07:45.552Z,7.89
2023-11-15T15:10:13.138Z,7.89
2023-11-15T15:12:43.991Z,7.83
2023-11-15T15:15:13.184Z,7.87
2023-11-15T15:17:42.718Z,7.78
2023-11-15T15:20:09.906Z,7.71
2023-11-15T15:22:38.253Z,7.72
2023-11-15T15:25:06.160Z,7.66
2023-11-15T15:27:32.861Z,7.71
2023-11-15T15:30:00.945Z,7.65
2023-11-15T15:32:28.251Z,7.60
2023-11-15T15:34:54.814Z,7.54
2023-11-15T15:37:21.210Z,7.65
2023-11-15T15:39:47.535Z,7.51
2023-11-15T15:42:13.960Z,7.55
2023-11-15T15:44:41.224Z,7.51
2023-11-15T15:47:07.562Z,7.46
2023-11-15T15:49:33.965Z,7.40
2023-11-15T15:52:00.490Z,7.36
2023-11-15T15:54:27.193Z,7.45
2023-11-15T15:56:53.596Z,7.47
2023-11-15T15:59:19.935Z,7.53
2023-11-15T16:01:46.325Z,7.47
2023-11-15T16:04:14.587Z,7.42
2023-11-15T16:06:42.086Z,7.40
2023-11-15T16:09:08.582Z,7.37
2023-11-15T16:11:34.960Z,7.47
2023-11-15T16:14:02.066Z,7.40
2023-11-15T16:16:28.460Z,7.39
2023-11-15T16:18:54.864Z,7.40
2023-11-15T16:21:21.228Z,7.34
2023-11-15T16:23:47.670Z,7.32
2023-11-15T16:26:16.488Z,7.40
2023-11-15T16:28:42.809Z,7.37
2023-11-15T16:31:09.156Z,7.42
2023-11-15T16:33:35.577Z,7.38
2023-11-15T16:36:01.953Z,7.40
2023-11-15T16:38:28.310Z,7.42
2023-11-15T16:40:55.629Z,7.41
2023-11-15T16:43:23.963Z,7.37
2023-11-15T16:45:50.350Z,7.39
2023-11-15T16:48:16.770Z,7.36
2023-11-15T16:50:47.396Z,7.43
2023-11-15T16:53:13.801Z,7.42
2023-11-15T16:55:41.470Z,7.37
2023-11-15T16:58:07.815Z,7.38
2023-11-15T17:00:34.338Z,7.38
2023-11-15T17:03:01.755Z,7.44
2023-11-15T17:05:28.272Z,7.41
2023-11-15T17:07:54.727Z,7.40
2023-11-15T17:10:22.975Z,7.48
2023-11-15T17:12:49.342Z,7.56
2023-11-15T17:15:16.128Z,7.54
2023-11-15T17:17:42.563Z,7.56
2023-11-15T17:20:09.646Z,7.63
2023-11-15T17:22:36.758Z,7.67
2023-11-15T17:25:15.259Z,7.71
2023-11-15T17:27:46.861Z,7.81
2023-11-15T17:30:13.287Z,7.80
2023-11-15T17:32:39.835Z,7.83
2023-11-15T17:35:07.370Z,7.91
2023-11-15T17:37:34.372Z,8.03
2023-11-15T17:40:00.995Z,7.99
2023-11-15T17:42:27.725Z,7.99
2023-11-15T17:44:56.986Z,7.93
2023-11-15T17:47:25.174Z,7.93
2023-11-15T17:49:52.131Z,7.94
2023-11-15T17:52:18.594Z,8.01
2023-11-15T17:54:44.928Z,7.94
2023-11-15T17:57:13.600Z,7.92
2023-11-15T17:59:40.321Z,7.94
2023-11-15T18:02:06.667Z,7.93
2023-11-15T18:04:33.062Z,7.99
2023-11-15T18:06:59.485Z,8.01
2023-11-15T18:09:25.923Z,7.88
2023-11-15T18:11:52.383Z,7.82
2023-11-15T18:14:18.982Z,7.77
2023-11-15T18:16:46.333Z,7.78
2023-11-15T18:19:13.006Z,7.71
2023-11-15T18:21:39.503Z,7.76
2023-11-15T18:24:06.702Z,7.76
2023-11-15T18:26:33.522Z,7.72
2023-11-15T18:29:01.433Z,7.76
2023-11-15T18:31:29.270Z,7.78
2023-11-15T18:33:57.890Z,7.71
2023-11-15T18:36:25.418Z,7.67
2023-11-15T18:38:52.750Z,7.64
2023-11-15T18:41:19.222Z,7.68
2023-11-15T18:43:46.637Z,7.58
2023-11-15T18:46:13.030Z,7.67
2023-11-15T18:48:39.799Z,7.54
2023-11-15T18:51:06.635Z,7.57
2023-11-15T18:53:33.098Z,7.50
2023-11-15T18:56:01.008Z,7.50
2023-11-15T18:58:28.366Z,7.45
2023-11-15T19:00:55.192Z,7.52
2023-11-15T19:03:21.688Z,7.41
2023-11-15T19:05:48.124Z,7.38
2023-11-15T19:08:15.466Z,7.37
2023-11-15T19:10:41.827Z,7.45
2023-11-15T19:13:08.179Z,7.46
2023-11-15T19:15:35.103Z,7.37
2023-11-15T19:18:01.740Z,7.41
2023-11-15T19:20:29.978Z,7.38
2023-11-15T19:22:56.544Z,7.43
2023-11-15T19:25:23.627Z,7.42
2023-11-15T19:27:50.665Z,7.45
2023-11-15T19:30:18.415Z,7.43
2023-11-15T19:32:44.861Z,7.38
2023-11-15T19:35:11.930Z,7.35
2023-11-15T19:37:38.958Z,7.37
2023-11-15T19:40:09.756Z,7.33
2023-11-15T19:42:37.580Z,7.32
2023-11-15T19:45:05.451Z,7.34
2023-11-15T19:47:31.861Z,7.27
2023-11-15T19:49:59.272Z,7.37
2023-11-15T19:52:25.677Z,7.28
2023-11-15T19:54:54.300Z,7.27
2023-11-15T19:57:22.088Z,7.23
2023-11-15T19:59:49.480Z,7.12
2023-11-15T20:02:16.128Z,7.07
2023-11-15T20:04:42.614Z,6.96
2023-11-15T20:07:10.500Z,6.92
2023-11-15T20:09:37.789Z,6.85
2023-11-15T20:12:04.462Z,6.78
2023-11-15T20:14:30.821Z,6.80
2023-11-15T20:16:57.269Z,6.72
2023-11-15T20:19:23.648Z,6.68
2023-11-15T20:21:51.710Z,6.69
2023-11-15T20:24:21.963Z,6.65
2023-11-15T20:26:49.453Z,6.70
2023-11-15T20:29:16.884Z,6.77
2023-11-15T20:31:43.294Z,6.54
2023-11-15T20:34:09.948Z,6.59
2023-11-15T20:36:39.744Z,6.55
2023-11-15T20:39:21.613Z,6.46
2023-11-15T20:41:51.008Z,6.47
2023-11-15T20:44:18.155Z,6.43
2023-11-15T20:46:46.116Z,6.42
2023-11-15T20:49:13.393Z,6.37
2023-11-15T20:51:48.524Z,6.39
2023-11-15T20:54:21.755Z,6.39
2023-11-15T20:56:48.120Z,6.50
2023-11-15T20:59:14.463Z,6.54
2023-11-15T21:01:41.114Z,6.50
2023-11-15T21:04:09.632Z,6.40
2023-11-15T21:06:36.918Z,6.45
2023-11-15T21:09:07.116Z,6.43
2023-11-15T21:11:33.530Z,6.41
2023-11-15T21:14:00.933Z,6.52
2023-11-15T21:16:27.441Z,6.49
2023-11-15T21:18:53.797Z,6.44
2023-11-15T21:21:20.139Z,6.42
2023-11-15T21:23:47.097Z,6.39
2023-11-15T21:26:13.462Z,6.32
2023-11-15T21:28:42.182Z,6.33
2023-11-15T21:31:09.338Z,6.35
2023-11-15T21:33:35.766Z,6.24
2023-11-15T21:36:03.941Z,6.21
2023-11-15T21:38:30.320Z,6.18
2023-11-15T21:40:56.658Z,6.16
2023-11-15T21:43:23.738Z,6.00
2023-11-15T21:45:50.106Z,5.97
2023-11-15T21:48:16.520Z,6.00
2023-11-15T21:50:44.172Z,5.94
2023-11-15T21:53:10.518Z,5.94
2023-11-15T21:55:36.870Z,5.89
2023-11-15T21:58:03.702Z,5.85
2023-11-15T22:00:30.144Z,5.81
2023-11-15T22:02:57.071Z,5.76
2023-11-15T22:05:23.649Z,5.72
2023-11-15T22:07:49.991Z,5.65
2023-11-15T22:10:16.400Z,5.61
2023-11-15T22:12:43.455Z,5.54
2023-11-15T22:15:11.370Z,5.45
2023-11-15T22:17:39.696Z,5.42
2023-11-15T22:20:07.337Z,5.35
2023-11-15T22:22:33.682Z,5.27
2023-11-15T22:25:00.413Z,5.19
2023-11-15T22:27:26.757Z,5.02
2023-11-15T22:29:53.100Z,4.99
2023-11-15T22:32:19.747Z,5.02
2023-11-15T22:34:46.240Z,4.86
2023-11-15T22:37:13.013Z,4.86
2023-11-15T22:39:39.341Z,4.77
2023-11-15T22:42:06.053Z,4.72
2023-11-15T22:44:32.473Z,4.66
2023-11-15T22:46:58.809Z,4.67
2023-11-15T22:49:25.259Z,4.65
2023-11-15T22:51:52.254Z,4.71
2023-11-15T22:54:19.173Z,4.67
2023-11-15T22:56:45.635Z,4.55
2023-11-15T22:59:11.994Z,4.49
2023-11-15T23:01:38.752Z,4.52
2023-11-15T23:04:08.091Z,4.54
2023-11-15T23:06:35.295Z,4.43
2023-11-15T23:09:05.582Z,4.52
2023-11-15T23:11:32.026Z,4.51
2023-11-15T23:13:58.426Z,4.41
2023-11-15T23:16:25.708Z,4.38
2023-11-15T23:18:54.581Z,4.41
2023-11-15T23:21:21.033Z,4.40
2023-11-15T23:23:47.455Z,4.42
2023-11-15T23:26:13.847Z,4.36
2023-11-15T23:28:40.227Z,4.41
2023-11-15T23:31:07.718Z,4.28
2023-11-15T23:33:34.302Z,4.29
2023-11-15T23:36:00.992Z,4.29
2023-11-15T23:38:30.249Z,4.28
2023-11-15T23:40:57.501Z,4.32
2023-11-15T23:43:29.651Z,4.29
2023-11-15T23:45:56.196Z,4.21
2023-11-15T23:48:22.617Z,4.22
2023-11-15T23:50:49.285Z,4.21
2023-11-15T23:53:15.697Z,4.17
2023-11-15T23:55:42.135Z,4.15
2023-11-15T23:58:09.843Z,4.06
